Cylinder, Iowa
Current Conditions -  °F | °C
As of 7:15 AM on Thursday 23 Oct 2014 (Local Time) from KAXA Reporting Station
Haze Haze  
Wind Chill: 12°   Ceiling: 200
Heat Index: 12°   Visibility: 2mi
Dew Point: 12°   Wind: 8mph
Humidity: 100%   Direction: 200°SSW
Pressure: 30"   Gusts: NA
Location:  43.09°N, 94.55°W
Report Text: KAXA 231215Z AUTO 20007KT 2SM BR OVC002 12/12 A3000 RMK AO2
Loading
Personal Weather Stations






























Interactive Weather Map
Tropical Storm Tracking
New forecast layout! Learn more

10-Day Weather Forecast

Advertisements
Track Severe Weather on mobile